Terminal Aerodrome Forecast
Issued by NWS

Home | Current Version | Previous Version | Text Only | Print | Product List | Glossary On
Versions: 1 2 3 4 5 6 7 8 9 10 11 12 13 14 15 16 17 18
000
FTUS46 KLOX 051700
TAFVNY
TAF
KVNY 051736Z 0518/0618 13004KT P6SM OVC026
     FM052000 16009KT P6SM BKN035
     FM060400 14004KT P6SM BKN017
     FM060900 VRB03KT P6SM OVC022=

USA.gov is the U.S. government's official web portal to all federal, state and local government web resources and services.